createdAt,value
2018-08-13T00:01:42.089Z,18.10
2018-08-13T00:04:10.751Z,18.10
2018-08-13T00:06:39.879Z,18.10
2018-08-13T00:09:08.813Z,18.00
2018-08-13T00:11:37.622Z,18.00
2018-08-13T00:14:06.445Z,18.00
2018-08-13T00:16:35.340Z,18.00
2018-08-13T00:19:04.347Z,18.00
2018-08-13T00:21:33.761Z,17.90
2018-08-13T00:24:02.436Z,17.90
2018-08-13T00:26:31.147Z,17.90
2018-08-13T00:28:59.806Z,17.80
2018-08-13T00:31:28.826Z,17.70
2018-08-13T00:33:57.422Z,17.70
2018-08-13T00:36:26.011Z,17.90
2018-08-13T00:38:54.819Z,17.90
2018-08-13T00:41:23.463Z,17.90
2018-08-13T00:43:52.254Z,17.80
2018-08-13T00:46:20.973Z,17.80
2018-08-13T00:48:49.550Z,17.70
2018-08-13T00:51:18.476Z,17.70
2018-08-13T00:53:47.336Z,17.70
2018-08-13T00:56:16.148Z,17.70
2018-08-13T00:58:44.776Z,18.10
2018-08-13T01:01:13.340Z,18.00
2018-08-13T01:03:41.897Z,18.00
2018-08-13T01:06:10.477Z,18.00
2018-08-13T01:08:39.071Z,17.90
2018-08-13T01:11:07.662Z,17.80
2018-08-13T01:13:36.395Z,17.90
2018-08-13T01:16:05.270Z,18.30
2018-08-13T01:18:34.736Z,18.30
2018-08-13T01:21:04.173Z,18.30
2018-08-13T01:23:32.968Z,18.30
2018-08-13T01:26:01.732Z,18.20
2018-08-13T01:28:30.584Z,18.20
2018-08-13T01:30:59.402Z,18.50
2018-08-13T01:33:28.149Z,18.70
2018-08-13T01:35:57.058Z,18.60
2018-08-13T01:38:25.906Z,18.40
2018-08-13T01:40:54.732Z,18.40
2018-08-13T01:43:23.355Z,18.30
2018-08-13T01:45:52.356Z,18.30
2018-08-13T01:48:20.983Z,18.90
2018-08-13T01:50:49.615Z,19.10
2018-08-13T01:53:18.165Z,19.10
2018-08-13T01:55:46.826Z,19.10
2018-08-13T01:58:15.869Z,18.90
2018-08-13T02:00:44.544Z,19.10
2018-08-13T02:03:13.373Z,19.20
2018-08-13T02:05:42.071Z,19.00
2018-08-13T02:08:11.053Z,18.90
2018-08-13T02:10:39.632Z,19.00
2018-08-13T02:13:08.235Z,19.00
2018-08-13T02:15:37.644Z,18.80
2018-08-13T02:18:06.441Z,18.50
2018-08-13T02:20:35.266Z,18.30
2018-08-13T02:23:03.930Z,18.10
2018-08-13T02:25:32.604Z,18.20
2018-08-13T02:28:01.172Z,18.20
2018-08-13T02:30:30.528Z,18.10
2018-08-13T02:32:59.280Z,18.00
2018-08-13T02:35:27.926Z,17.90
2018-08-13T02:37:56.527Z,17.80
2018-08-13T02:40:25.297Z,17.80
2018-08-13T02:42:54.617Z,17.70
2018-08-13T02:45:23.170Z,18.10
2018-08-13T02:47:51.726Z,18.00
2018-08-13T02:50:20.409Z,18.30
2018-08-13T02:52:49.042Z,18.70
2018-08-13T02:55:17.690Z,18.80
2018-08-13T02:57:46.435Z,18.50
2018-08-13T03:00:15.086Z,18.30
2018-08-13T03:02:44.480Z,18.10
2018-08-13T03:05:13.594Z,18.20
2018-08-13T03:07:42.162Z,18.50
2018-08-13T03:10:12.564Z,18.60
2018-08-13T03:12:41.769Z,18.80
2018-08-13T03:15:13.026Z,18.80
2018-08-13T03:17:41.673Z,18.90
2018-08-13T03:20:10.666Z,18.60
2018-08-13T03:22:39.223Z,18.40
2018-08-13T03:25:09.425Z,18.10
2018-08-13T03:27:38.067Z,18.20
2018-08-13T03:30:09.249Z,17.90
2018-08-13T03:32:38.167Z,17.80
2018-08-13T03:35:07.133Z,17.70
2018-08-13T03:37:36.344Z,17.70
2018-08-13T03:40:07.616Z,17.80
2018-08-13T03:42:36.197Z,18.00
2018-08-13T03:45:06.474Z,18.30
2018-08-13T03:47:35.287Z,18.40
2018-08-13T03:50:04.203Z,18.70
2018-08-13T03:52:33.449Z,18.80
2018-08-13T03:55:02.448Z,18.50
2018-08-13T03:57:31.185Z,18.60
2018-08-13T04:00:00.099Z,18.80
2018-08-13T04:02:30.009Z,18.60
2018-08-13T04:04:58.833Z,18.30
2018-08-13T04:07:27.527Z,18.00
2018-08-13T04:09:56.218Z,18.00
2018-08-13T04:12:24.807Z,18.30
2018-08-13T04:14:53.636Z,18.60
2018-08-13T04:17:22.197Z,18.60
2018-08-13T04:19:50.860Z,18.50
2018-08-13T04:22:19.438Z,18.60
2018-08-13T04:24:48.270Z,18.60
2018-08-13T04:27:16.955Z,18.80
2018-08-13T04:29:45.571Z,18.80
2018-08-13T04:32:14.228Z,18.70
2018-08-13T04:34:42.816Z,18.50
2018-08-13T04:37:11.352Z,18.60
2018-08-13T04:39:39.975Z,18.50
2018-08-13T04:42:08.650Z,18.50
2018-08-13T04:44:37.492Z,18.10
2018-08-13T04:47:06.392Z,18.10
2018-08-13T04:49:35.341Z,18.00
2018-08-13T04:52:04.206Z,18.00
2018-08-13T04:54:32.854Z,17.80
2018-08-13T04:57:01.726Z,17.80
2018-08-13T04:59:30.546Z,17.50
2018-08-13T05:01:59.234Z,17.50
2018-08-13T05:04:27.840Z,17.60
2018-08-13T05:06:56.726Z,17.60
2018-08-13T05:09:25.544Z,17.40
2018-08-13T05:11:54.160Z,17.30
2018-08-13T05:14:22.738Z,17.30
2018-08-13T05:16:51.544Z,17.20
2018-08-13T05:19:20.148Z,17.30
2018-08-13T05:21:48.782Z,17.70
2018-08-13T05:24:17.390Z,17.80
2018-08-13T05:26:45.982Z,17.90
2018-08-13T05:29:14.564Z,18.00
2018-08-13T05:31:43.224Z,17.70
2018-08-13T05:34:12.100Z,17.70
2018-08-13T05:36:40.743Z,17.60
2018-08-13T05:39:11.066Z,17.50
2018-08-13T05:41:39.742Z,17.40
2018-08-13T05:44:08.393Z,17.50
2018-08-13T05:46:37.019Z,17.50
2018-08-13T05:49:05.651Z,17.80
2018-08-13T05:51:34.296Z,17.70
2018-08-13T05:54:03.281Z,17.80
2018-08-13T05:56:32.562Z,17.60
2018-08-13T05:59:02.423Z,17.70
2018-08-13T06:01:31.124Z,17.70
2018-08-13T06:03:59.844Z,17.50
2018-08-13T06:06:28.735Z,17.50
2018-08-13T06:08:57.531Z,17.80
2018-08-13T06:11:26.963Z,17.90
2018-08-13T06:13:55.535Z,17.70
2018-08-13T06:16:24.217Z,17.80
2018-08-13T06:18:52.819Z,17.80
2018-08-13T06:21:21.565Z,17.70
2018-08-13T06:23:50.445Z,17.50
2018-08-13T06:26:19.733Z,17.60
2018-08-13T06:28:48.423Z,17.60
2018-08-13T06:31:17.246Z,17.50
2018-08-13T06:33:45.865Z,17.50
2018-08-13T06:36:14.433Z,17.50
2018-08-13T06:38:43.059Z,17.50
2018-08-13T06:41:11.701Z,17.50
2018-08-13T06:43:40.293Z,17.50
2018-08-13T06:46:08.999Z,17.70
2018-08-13T06:48:37.656Z,17.70
2018-08-13T06:51:06.269Z,17.70
2018-08-13T06:53:36.009Z,17.60
2018-08-13T06:56:04.644Z,17.70
2018-08-13T06:58:33.527Z,17.60
2018-08-13T07:01:02.284Z,17.60
2018-08-13T07:03:30.973Z,17.60
2018-08-13T07:05:59.685Z,17.50
2018-08-13T07:08:28.282Z,17.40
2018-08-13T07:10:56.900Z,17.50
2018-08-13T07:13:25.814Z,17.60
2018-08-13T07:15:54.511Z,17.60
2018-08-13T07:18:23.196Z,17.60
2018-08-13T07:20:51.910Z,17.70
2018-08-13T07:23:20.897Z,17.60
2018-08-13T07:25:49.810Z,17.70
2018-08-13T07:28:18.443Z,17.80
2018-08-13T07:30:47.046Z,17.90
2018-08-13T07:33:15.731Z,17.90
2018-08-13T07:35:44.333Z,17.80
2018-08-13T07:38:13.004Z,17.90
2018-08-13T07:40:41.714Z,18.10
2018-08-13T07:43:10.359Z,18.10
2018-08-13T07:45:39.228Z,18.20
2018-08-13T07:48:08.035Z,18.30
2018-08-13T07:50:36.963Z,18.20
2018-08-13T07:53:05.950Z,18.30
2018-08-13T07:55:34.531Z,18.20
2018-08-13T07:58:03.718Z,18.30
2018-08-13T08:00:32.581Z,18.40
2018-08-13T08:03:01.304Z,18.40
2018-08-13T08:05:30.571Z,18.40
2018-08-13T08:07:59.789Z,18.40
2018-08-13T08:10:28.784Z,18.40
2018-08-13T08:12:58.091Z,18.40
2018-08-13T08:15:27.226Z,18.40
2018-08-13T08:17:56.075Z,18.50
2018-08-13T08:20:24.731Z,18.50
2018-08-13T08:22:53.611Z,18.60
2018-08-13T08:25:27.471Z,18.60
2018-08-13T08:27:56.354Z,18.80
2018-08-13T08:30:25.640Z,18.80
2018-08-13T08:32:54.770Z,18.60
2018-08-13T08:35:24.045Z,18.50
2018-08-13T08:37:52.978Z,18.60
2018-08-13T08:40:22.036Z,18.80
2018-08-13T08:42:51.050Z,18.80
2018-08-13T08:45:23.445Z,18.80
2018-08-13T08:47:52.879Z,18.80
2018-08-13T08:50:21.813Z,18.80
2018-08-13T08:52:51.058Z,18.90
2018-08-13T08:55:19.825Z,19.00
2018-08-13T08:57:50.174Z,18.80
2018-08-13T09:00:20.405Z,18.60
2018-08-13T09:02:49.247Z,18.70
2018-08-13T09:05:17.924Z,18.50
2018-08-13T09:07:47.778Z,18.60
2018-08-13T09:10:17.637Z,18.80
2018-08-13T09:12:46.607Z,18.90
2018-08-13T09:15:17.021Z,18.90
2018-08-13T09:17:57.865Z,19.00
2018-08-13T09:20:37.560Z,19.00
2018-08-13T09:23:17.338Z,18.80
2018-08-13T09:25:57.101Z,18.70
2018-08-13T09:28:36.902Z,18.60
2018-08-13T09:31:25.095Z,18.60
2018-08-13T09:34:04.854Z,18.60
2018-08-13T09:36:33.903Z,18.70
2018-08-13T09:39:02.882Z,18.70
2018-08-13T09:41:32.655Z,18.80
2018-08-13T09:44:01.228Z,18.80
2018-08-13T09:46:29.822Z,18.70
2018-08-13T09:48:58.632Z,18.80
2018-08-13T09:51:27.442Z,18.60
2018-08-13T09:53:56.209Z,18.50
2018-08-13T09:56:25.352Z,18.50
2018-08-13T09:58:54.021Z,18.60
2018-08-13T10:01:22.647Z,18.70
2018-08-13T10:03:51.388Z,18.70
2018-08-13T10:06:20.388Z,18.90
2018-08-13T10:08:49.320Z,19.00
2018-08-13T10:11:19.669Z,19.10
2018-08-13T10:13:48.289Z,19.00
2018-08-13T10:16:17.132Z,19.10
2018-08-13T10:18:45.792Z,19.00
2018-08-13T10:21:14.495Z,18.80
2018-08-13T10:23:43.683Z,18.80
2018-08-13T10:26:12.433Z,18.80
2018-08-13T10:28:41.407Z,18.70
2018-08-13T10:31:10.342Z,18.80
2018-08-13T10:33:39.411Z,18.80
2018-08-13T10:36:08.454Z,18.70
2018-08-13T10:38:36.993Z,18.70
2018-08-13T10:41:05.699Z,18.90
2018-08-13T10:43:34.411Z,18.80
2018-08-13T10:46:03.180Z,19.00
2018-08-13T10:48:31.860Z,19.20
2018-08-13T10:51:00.690Z,19.20
2018-08-13T10:53:30.055Z,19.10
2018-08-13T10:55:58.883Z,19.30
2018-08-13T10:58:27.902Z,19.10
2018-08-13T11:00:56.855Z,19.00
2018-08-13T11:03:25.501Z,18.80
2018-08-13T11:05:54.149Z,18.90
2018-08-13T11:08:23.140Z,19.00
2018-08-13T11:10:52.757Z,19.10
2018-08-13T11:13:21.609Z,19.00
2018-08-13T11:15:51.093Z,18.90
2018-08-13T11:18:19.771Z,18.80
2018-08-13T11:20:48.919Z,18.80
2018-08-13T11:23:17.631Z,18.80
2018-08-13T11:25:46.683Z,18.70
2018-08-13T11:28:15.729Z,18.60
2018-08-13T11:30:44.699Z,18.60
2018-08-13T11:33:13.479Z,18.40
2018-08-13T11:35:42.177Z,18.60
2018-08-13T11:38:12.069Z,18.40
2018-08-13T11:40:40.719Z,18.60
2018-08-13T11:43:10.026Z,18.70
2018-08-13T11:45:38.950Z,18.70
2018-08-13T11:48:07.588Z,18.60
2018-08-13T11:50:36.439Z,18.70
2018-08-13T11:53:05.264Z,18.70
2018-08-13T11:55:34.008Z,19.00
2018-08-13T11:58:02.920Z,18.80
2018-08-13T12:00:32.038Z,18.70
2018-08-13T12:03:00.982Z,18.80
2018-08-13T12:05:29.635Z,18.80
2018-08-13T12:07:59.443Z,18.80
2018-08-13T12:10:28.396Z,19.00
2018-08-13T12:12:57.526Z,18.80
2018-08-13T12:15:26.084Z,18.60
2018-08-13T12:24:39.204Z,18.70
2018-08-13T12:27:08.130Z,18.60
2018-08-13T12:29:36.915Z,18.60
2018-08-13T12:32:05.634Z,18.40
2018-08-13T12:34:34.330Z,18.30
2018-08-13T12:37:08.080Z,18.20
2018-08-13T12:39:37.588Z,18.50
2018-08-13T12:42:07.062Z,18.40
2018-08-13T12:44:35.973Z,18.40
2018-08-13T12:47:06.356Z,18.50
2018-08-13T12:49:35.145Z,18.40
2018-08-13T12:52:03.995Z,18.50
2018-08-13T12:54:33.256Z,18.40
2018-08-13T12:57:01.941Z,18.20
2018-08-13T12:59:30.548Z,18.20
2018-08-13T13:01:59.085Z,18.40
2018-08-13T13:04:27.790Z,18.50
2018-08-13T13:06:56.462Z,18.60
2018-08-13T13:09:25.343Z,18.70
2018-08-13T13:11:54.038Z,18.90
2018-08-13T13:14:22.710Z,18.90
2018-08-13T13:16:51.440Z,19.10
2018-08-13T13:19:20.041Z,19.10
2018-08-13T13:21:49.349Z,19.20
2018-08-13T13:24:18.493Z,19.10
2018-08-13T13:26:47.178Z,19.10
2018-08-13T13:29:16.206Z,19.10
2018-08-13T13:31:44.842Z,19.30
2018-08-13T13:34:13.704Z,19.30
2018-08-13T13:36:42.861Z,19.20
2018-08-13T13:39:11.410Z,19.30
2018-08-13T13:41:40.134Z,19.40
2018-08-13T13:44:08.768Z,19.30
2018-08-13T13:46:38.023Z,19.50
2018-08-13T13:49:07.028Z,19.60
2018-08-13T13:51:35.818Z,19.60
2018-08-13T13:54:04.786Z,19.50
2018-08-13T13:56:33.822Z,19.60
2018-08-13T13:59:02.480Z,19.70
2018-08-13T14:01:31.552Z,19.80
2018-08-13T14:04:00.150Z,19.90
2018-08-13T14:06:29.400Z,19.90
2018-08-13T14:08:58.247Z,19.90
2018-08-13T14:11:27.058Z,19.80
2018-08-13T14:13:55.746Z,19.90
2018-08-13T14:16:25.411Z,19.80
2018-08-13T14:18:54.660Z,19.70
2018-08-13T14:21:23.340Z,19.70
2018-08-13T14:23:52.006Z,19.70
2018-08-13T14:26:21.236Z,19.70
2018-08-13T14:28:50.212Z,19.70
2018-08-13T14:31:19.122Z,19.70
2018-08-13T14:33:47.765Z,19.70
2018-08-13T14:36:16.759Z,19.80
2018-08-13T14:38:45.512Z,19.80
2018-08-13T14:41:15.516Z,20.00
2018-08-13T14:43:44.132Z,20.10
2018-08-13T14:46:13.430Z,19.90
2018-08-13T14:48:42.087Z,19.70
2018-08-13T14:51:10.762Z,19.80
2018-08-13T14:53:39.475Z,20.10
2018-08-13T14:56:08.555Z,20.10
2018-08-13T14:58:37.626Z,20.10
2018-08-13T15:01:07.174Z,20.10
2018-08-13T15:03:36.494Z,20.20
2018-08-13T15:06:05.946Z,20.20
2018-08-13T15:08:34.963Z,20.30
2018-08-13T15:11:04.000Z,20.30
2018-08-13T15:13:33.293Z,20.50
2018-08-13T15:16:02.264Z,20.60
2018-08-13T15:18:31.555Z,20.70
2018-08-13T15:21:00.525Z,20.60
2018-08-13T15:23:29.572Z,20.50
2018-08-13T15:25:58.931Z,20.60
2018-08-13T15:28:27.896Z,20.60
2018-08-13T15:30:56.829Z,20.30
2018-08-13T15:33:25.628Z,20.30
2018-08-13T15:35:54.331Z,20.50
2018-08-13T15:38:23.267Z,20.40
2018-08-13T15:40:52.485Z,20.30
2018-08-13T15:43:21.170Z,20.30
2018-08-13T15:45:50.324Z,20.20
2018-08-13T15:48:19.293Z,20.20
2018-08-13T15:50:48.356Z,20.20
2018-08-13T15:53:17.363Z,20.30
2018-08-13T15:55:46.193Z,20.30
2018-08-13T15:58:15.868Z,20.40
2018-08-13T16:00:44.839Z,20.40
2018-08-13T16:03:14.485Z,20.20
2018-08-13T16:05:43.081Z,20.20
2018-08-13T16:08:11.948Z,20.30
2018-08-13T16:10:40.546Z,20.30
2018-08-13T16:13:09.208Z,20.20
2018-08-13T16:15:39.107Z,20.50
2018-08-13T16:18:08.083Z,20.50
2018-08-13T16:20:36.806Z,20.40
2018-08-13T16:23:05.832Z,20.40
2018-08-13T16:25:34.990Z,20.30
2018-08-13T16:28:03.972Z,20.20
2018-08-13T16:30:32.841Z,20.30
2018-08-13T16:33:02.064Z,20.50
2018-08-13T16:35:31.705Z,20.50
2018-08-13T16:38:00.648Z,20.40
2018-08-13T16:40:30.708Z,20.40
2018-08-13T16:43:00.196Z,20.30
2018-08-13T16:45:29.121Z,20.10
2018-08-13T16:47:58.140Z,20.10
2018-08-13T16:50:28.543Z,20.00
2018-08-13T16:52:58.044Z,20.10
2018-08-13T16:55:28.349Z,20.10
2018-08-13T16:57:57.547Z,20.10
2018-08-13T17:00:27.910Z,20.10
2018-08-13T17:02:57.377Z,20.10
2018-08-13T17:05:26.707Z,20.10
2018-08-13T17:07:56.054Z,20.00
2018-08-13T17:10:27.044Z,20.00
2018-08-13T17:12:56.347Z,20.20
2018-08-13T17:15:25.881Z,20.10
2018-08-13T17:17:56.217Z,20.10
2018-08-13T17:20:26.905Z,20.00
2018-08-13T17:22:55.829Z,20.10
2018-08-13T17:25:24.854Z,20.00
2018-08-13T17:27:53.746Z,19.90
2018-08-13T17:30:24.116Z,19.90
2018-08-13T17:32:53.944Z,19.80
2018-08-13T17:35:24.640Z,19.90
2018-08-13T17:37:53.395Z,19.80
2018-08-13T17:40:23.224Z,19.90
2018-08-13T17:42:53.074Z,19.90
2018-08-13T17:45:21.818Z,19.90
2018-08-13T17:47:50.509Z,19.90
2018-08-13T17:50:20.531Z,19.90
2018-08-13T17:52:49.242Z,19.80
2018-08-13T17:55:18.374Z,19.80
2018-08-13T17:57:47.275Z,19.90
2018-08-13T18:00:19.369Z,19.70
2018-08-13T18:02:48.077Z,19.60
2018-08-13T18:05:19.337Z,19.50
2018-08-13T18:07:48.897Z,19.50
2018-08-13T18:10:22.251Z,19.50
2018-08-13T18:12:51.416Z,19.60
2018-08-13T18:15:20.117Z,19.60
2018-08-13T18:17:49.490Z,19.70
2018-08-13T18:20:18.192Z,19.80
2018-08-13T18:22:47.236Z,19.80
2018-08-13T18:25:16.276Z,19.70
2018-08-13T18:27:46.563Z,19.70
2018-08-13T18:30:23.780Z,19.90
2018-08-13T18:32:52.974Z,19.80
2018-08-13T18:35:22.022Z,19.80
2018-08-13T18:37:50.771Z,19.80
2018-08-13T18:40:23.683Z,19.90
2018-08-13T18:42:52.596Z,19.80
2018-08-13T18:45:21.688Z,19.70
2018-08-13T18:47:51.243Z,19.70
2018-08-13T18:50:21.088Z,19.70
2018-08-13T18:52:50.115Z,19.90
2018-08-13T18:55:22.041Z,19.70
2018-08-13T18:57:52.145Z,19.70
2018-08-13T19:00:22.376Z,19.80
2018-08-13T19:02:51.060Z,19.80
2018-08-13T19:05:20.563Z,19.70
2018-08-13T19:07:49.894Z,19.60
2018-08-13T19:10:19.322Z,19.70
2018-08-13T19:12:48.399Z,19.70
2018-08-13T19:15:19.329Z,19.70
2018-08-13T19:17:48.359Z,19.80
2018-08-13T19:20:17.304Z,19.70
2018-08-13T19:22:46.277Z,19.60
2018-08-13T19:25:19.682Z,19.50
2018-08-13T19:27:48.433Z,19.60
2018-08-13T19:30:18.267Z,19.60
2018-08-13T19:32:47.743Z,19.60
2018-08-13T19:35:16.876Z,19.60
2018-08-13T19:37:46.139Z,19.60
2018-08-13T19:40:16.700Z,19.50
2018-08-13T19:42:46.260Z,19.40
2018-08-13T19:45:17.006Z,19.30
2018-08-13T19:47:46.351Z,19.30
2018-08-13T19:50:15.527Z,19.10
2018-08-13T19:52:45.361Z,19.10
2018-08-13T19:55:14.321Z,19.10
2018-08-13T19:57:43.007Z,19.10
2018-08-13T20:00:16.733Z,19.00
2018-08-13T20:02:45.694Z,19.00
2018-08-13T20:05:14.285Z,19.10
2018-08-13T20:07:42.942Z,19.10
2018-08-13T20:10:13.426Z,19.10
2018-08-13T20:12:42.742Z,19.00
2018-08-13T20:15:11.760Z,18.80
2018-08-13T20:17:40.841Z,18.70
2018-08-13T20:20:14.718Z,18.80
2018-08-13T20:22:44.521Z,18.90
2018-08-13T20:25:15.328Z,18.90
2018-08-13T20:27:44.716Z,18.80
2018-08-13T20:30:15.773Z,18.80
2018-08-13T20:32:46.050Z,18.80
2018-08-13T20:35:15.312Z,18.70
2018-08-13T20:37:44.035Z,18.70
2018-08-13T20:40:14.836Z,18.60
2018-08-13T20:42:43.995Z,18.50
2018-08-13T20:45:15.401Z,18.50
2018-08-13T20:47:44.485Z,18.60
2018-08-13T20:50:15.104Z,18.70
2018-08-13T20:52:44.612Z,18.50
2018-08-13T20:55:16.181Z,18.50
2018-08-13T20:57:45.828Z,18.40
2018-08-13T21:00:15.756Z,18.50
2018-08-13T21:02:45.894Z,18.40
2018-08-13T21:05:14.930Z,18.20
2018-08-13T21:07:43.990Z,18.20
2018-08-13T21:10:15.963Z,18.20
2018-08-13T21:12:44.638Z,18.20
2018-08-13T21:15:14.412Z,18.10
2018-08-13T21:17:43.301Z,18.20
2018-08-13T21:20:18.143Z,18.20
2018-08-13T21:22:46.801Z,18.10
2018-08-13T21:25:15.461Z,18.20
2018-08-13T21:27:44.112Z,18.20
2018-08-13T21:30:12.901Z,18.10
2018-08-13T21:32:42.546Z,18.00
2018-08-13T21:35:12.315Z,17.90
2018-08-13T21:37:40.938Z,18.10
2018-08-13T21:40:10.159Z,18.20
2018-08-13T21:42:38.806Z,18.20
2018-08-13T21:45:08.868Z,18.10
2018-08-13T21:47:38.015Z,18.20
2018-08-13T21:50:10.389Z,18.30
2018-08-13T21:52:39.583Z,18.20
2018-08-13T21:55:09.107Z,18.20
2018-08-13T21:57:37.724Z,18.20
2018-08-13T22:00:13.645Z,18.30
2018-08-13T22:02:42.252Z,18.20
2018-08-13T22:05:11.186Z,18.10
2018-08-13T22:07:39.792Z,18.10
2018-08-13T22:10:09.537Z,18.00
2018-08-13T22:12:38.570Z,18.00
2018-08-13T22:15:19.141Z,18.00
2018-08-13T22:17:48.067Z,18.00
2018-08-13T22:20:17.411Z,18.10
2018-08-13T22:22:46.097Z,18.00
2018-08-13T22:25:17.881Z,18.10
2018-08-13T22:27:46.684Z,18.00
2018-08-13T22:30:15.307Z,18.00
2018-08-13T22:32:43.900Z,18.00
2018-08-13T22:35:13.893Z,18.00
2018-08-13T22:37:43.020Z,17.90
2018-08-13T22:40:16.523Z,17.80
2018-08-13T22:42:45.793Z,17.90
2018-08-13T22:45:16.889Z,18.00
2018-08-13T22:47:45.548Z,17.90
2018-08-13T22:50:14.365Z,17.90
2018-08-13T22:52:43.049Z,17.70
2018-08-13T22:55:13.164Z,17.90
2018-08-13T22:57:41.691Z,17.90
2018-08-13T23:00:13.076Z,17.80
2018-08-13T23:02:42.935Z,17.80
2018-08-13T23:05:13.710Z,17.80
2018-08-13T23:07:42.621Z,17.80
2018-08-13T23:10:15.442Z,17.70
2018-08-13T23:12:45.198Z,17.90
2018-08-13T23:15:15.459Z,17.90
2018-08-13T23:17:44.964Z,17.90
2018-08-13T23:20:21.049Z,17.80
2018-08-13T23:22:58.650Z,17.80
2018-08-13T23:25:28.133Z,17.90
2018-08-13T23:27:58.043Z,17.90
2018-08-13T23:30:27.043Z,18.10
2018-08-13T23:32:56.586Z,18.10
2018-08-13T23:35:26.554Z,18.10
2018-08-13T23:37:55.404Z,18.10
2018-08-13T23:40:24.813Z,18.20
2018-08-13T23:42:53.843Z,18.20
2018-08-13T23:45:25.925Z,18.00
2018-08-13T23:47:55.123Z,18.30
2018-08-13T23:50:25.254Z,18.20
2018-08-13T23:52:56.506Z,18.30
2018-08-13T23:55:32.085Z,18.10
2018-08-13T23:58:01.319Z,17.90
